sensor_id;sensor_type;location;lat;lon;timestamp;pressure;altitude;pressure_sealevel;temperature;humidity
14882;BME280;7533;51.278;12.588;2023-05-12T15:20:09;100194.69;;;24.26;58.41
14882;BME280;7533;51.278;12.588;2023-05-12T15:25:13;100185.50;;;24.06;58.79
14882;BME280;7533;51.278;12.588;2023-05-12T15:30:16;100193.22;;;24.11;58.86
14882;BME280;7533;51.278;12.588;2023-05-12T15:35:20;100193.38;;;24.09;58.92
14882;BME280;7533;51.278;12.588;2023-05-12T15:40:23;100188.09;;;24.08;58.91
14882;BME280;7533;51.278;12.588;2023-05-12T15:45:26;100188.16;;;24.17;58.41
14882;BME280;7533;51.278;12.588;2023-05-12T15:50:31;100188.38;;;24.48;57.27
14882;BME280;7533;51.278;12.588;2023-05-12T15:55:33;100184.13;;;24.66;56.31
14882;BME280;7533;51.278;12.588;2023-05-12T16:00:36;100179.44;;;24.68;55.86
14882;BME280;7533;51.278;12.588;2023-05-12T16:05:41;100177.56;;;24.69;55.56
14882;BME280;7533;51.278;12.588;2023-05-12T16:10:44;100182.22;;;24.78;56.15
14882;BME280;7533;51.278;12.588;2023-05-12T16:15:48;100182.97;;;25.01;54.86
14882;BME280;7533;51.278;12.588;2023-05-12T16:20:52;100183.06;;;25.11;54.84
14882;BME280;7533;51.278;12.588;2023-05-12T16:25:55;100169.25;;;25.14;55.13
14882;BME280;7533;51.278;12.588;2023-05-12T16:30:59;100168.91;;;25.07;55.26
14882;BME280;7533;51.278;12.588;2023-05-12T16:36:04;100172.09;;;25.12;54.75
14882;BME280;7533;51.278;12.588;2023-05-12T16:41:08;100165.13;;;25.19;54.69
14882;BME280;7533;51.278;12.588;2023-05-12T16:46:11;100163.56;;;25.17;54.67
14882;BME280;7533;51.278;12.588;2023-05-12T16:51:15;100170.22;;;25.33;54.13
14882;BME280;7533;51.278;12.588;2023-05-12T16:56:18;100166.28;;;25.47;54.03
14882;BME280;7533;51.278;12.588;2023-05-12T17:01:21;100179.94;;;25.36;53.96
14882;BME280;7533;51.278;12.588;2023-05-12T17:06:25;100186.63;;;25.83;52.42
14882;BME280;7533;51.278;12.588;2023-05-12T17:11:28;100184.66;;;25.95;51.84
14882;BME280;7533;51.278;12.588;2023-05-12T17:16:32;100193.81;;;26.04;51.69
14882;BME280;7533;51.278;12.588;2023-05-12T17:21:36;100199.66;;;26.09;52.08
14882;BME280;7533;51.278;12.588;2023-05-12T17:26:39;100196.94;;;26.09;51.93
14882;BME280;7533;51.278;12.588;2023-05-12T17:31:42;100202.81;;;26.14;52.04
14882;BME280;7533;51.278;12.588;2023-05-12T17:36:46;100214.69;;;26.13;51.94
14882;BME280;7533;51.278;12.588;2023-05-12T17:41:50;100239.81;;;26.15;51.80
14882;BME280;7533;51.278;12.588;2023-05-12T17:46:53;100244.25;;;26.16;51.89
14882;BME280;7533;51.278;12.588;2023-05-12T17:51:57;100250.25;;;26.20;51.23
14882;BME280;7533;51.278;12.588;2023-05-12T17:57:00;100258.53;;;26.18;51.32
14882;BME280;7533;51.278;12.588;2023-05-12T18:02:03;100240.97;;;26.22;51.32
14882;BME280;7533;51.278;12.588;2023-05-12T18:07:08;100239.28;;;26.21;51.31
14882;BME280;7533;51.278;12.588;2023-05-12T18:12:11;100232.56;;;26.25;52.01
14882;BME280;7533;51.278;12.588;2023-05-12T18:17:14;100233.66;;;26.13;52.68
14882;BME280;7533;51.278;12.588;2023-05-12T18:22:19;100241.44;;;26.27;52.37
14882;BME280;7533;51.278;12.588;2023-05-12T18:27:21;100243.84;;;26.30;52.71
14882;BME280;7533;51.278;12.588;2023-05-12T18:32:25;100248.72;;;26.36;52.90
14882;BME280;7533;51.278;12.588;2023-05-12T18:37:29;100257.56;;;26.29;52.92
14882;BME280;7533;51.278;12.588;2023-05-12T18:42:32;100258.56;;;26.37;52.94
14882;BME280;7533;51.278;12.588;2023-05-12T18:47:35;100264.88;;;26.38;53.17
14882;BME280;7533;51.278;12.588;2023-05-12T18:52:39;100277.06;;;26.44;53.21
14882;BME280;7533;51.278;12.588;2023-05-12T18:57:43;100292.78;;;26.09;53.85
14882;BME280;7533;51.278;12.588;2023-05-12T19:02:46;100305.00;;;26.34;53.29
14882;BME280;7533;51.278;12.588;2023-05-12T19:07:50;100314.06;;;26.45;53.56
14882;BME280;7533;51.278;12.588;2023-05-12T19:12:53;100311.63;;;26.42;53.70
14882;BME280;7533;51.278;12.588;2023-05-12T19:17:56;100324.63;;;26.48;53.89
14882;BME280;7533;51.278;12.588;2023-05-12T19:23:01;100339.56;;;26.32;54.15
14882;BME280;7533;51.278;12.588;2023-05-12T19:28:04;100330.47;;;26.43;53.97
14882;BME280;7533;51.278;12.588;2023-05-12T19:33:07;100334.78;;;26.46;54.41
14882;BME280;7533;51.278;12.588;2023-05-12T19:38:11;100332.78;;;26.48;54.41
14882;BME280;7533;51.278;12.588;2023-05-12T19:43:14;100330.47;;;26.43;54.46
14882;BME280;7533;51.278;12.588;2023-05-12T19:48:18;100342.59;;;26.39;54.88
14882;BME280;7533;51.278;12.588;2023-05-12T19:53:23;100343.59;;;26.38;54.99
14882;BME280;7533;51.278;12.588;2023-05-12T19:58:27;100341.84;;;26.37;55.49
14882;BME280;7533;51.278;12.588;2023-05-12T20:03:30;100341.84;;;26.37;55.51
14882;BME280;7533;51.278;12.588;2023-05-12T20:08:34;100346.34;;;26.48;55.51
14882;BME280;7533;51.278;12.588;2023-05-12T20:13:37;100343.63;;;26.48;55.71
14882;BME280;7533;51.278;12.588;2023-05-12T20:18:40;100335.69;;;26.56;55.34
14882;BME280;7533;51.278;12.588;2023-05-12T20:23:44;100340.81;;;26.59;55.30
14882;BME280;7533;51.278;12.588;2023-05-12T20:28:47;100344.84;;;26.34;56.10
14882;BME280;7533;51.278;12.588;2023-05-12T20:33:52;100353.56;;;26.37;56.15
14882;BME280;7533;51.278;12.588;2023-05-12T20:38:56;100359.06;;;26.47;55.74
14882;BME280;7533;51.278;12.588;2023-05-12T20:43:59;100353.63;;;26.47;55.88
14882;BME280;7533;51.278;12.588;2023-05-12T20:49:02;100354.38;;;26.49;55.78
14882;BME280;7533;51.278;12.588;2023-05-12T20:54:06;100350.09;;;26.56;55.45
14882;BME280;7533;51.278;12.588;2023-05-12T20:59:09;100361.38;;;26.52;55.89
14882;BME280;7533;51.278;12.588;2023-05-12T21:04:12;100353.38;;;26.50;55.67
14882;BME280;7533;51.278;12.588;2023-05-12T21:09:16;100359.25;;;26.55;55.67
14882;BME280;7533;51.278;12.588;2023-05-12T21:14:19;100367.69;;;26.62;55.45
14882;BME280;7533;51.278;12.588;2023-05-12T21:19:22;100375.09;;;26.60;55.66
14882;BME280;7533;51.278;12.588;2023-05-12T21:24:26;100377.56;;;26.63;55.57
14882;BME280;7533;51.278;12.588;2023-05-12T21:29:30;100379.13;;;26.66;55.30
14882;BME280;7533;51.278;12.588;2023-05-12T21:34:33;100390.72;;;26.68;55.25
14882;BME280;7533;51.278;12.588;2023-05-12T21:39:38;100389.13;;;26.65;55.53
14882;BME280;7533;51.278;12.588;2023-05-12T21:44:40;100387.84;;;26.69;55.40
14882;BME280;7533;51.278;12.588;2023-05-12T21:49:43;100395.84;;;26.61;55.57
14882;BME280;7533;51.278;12.588;2023-05-12T21:54:47;100394.69;;;26.63;55.47
14882;BME280;7533;51.278;12.588;2023-05-12T21:59:50;100397.72;;;26.60;55.75
14882;BME280;7533;51.278;12.588;2023-05-12T22:04:53;100390.53;;;26.59;55.87
14882;BME280;7533;51.278;12.588;2023-05-12T22:09:57;100399.69;;;26.58;55.83
14882;BME280;7533;51.278;12.588;2023-05-12T22:15:00;100395.56;;;26.64;55.49
14882;BME280;7533;51.278;12.588;2023-05-12T22:20:04;100403.56;;;26.66;55.81
14882;BME280;7533;51.278;12.588;2023-05-12T22:25:09;100405.84;;;26.60;55.66
14882;BME280;7533;51.278;12.588;2023-05-12T22:30:12;100407.28;;;26.64;55.99
14882;BME280;7533;51.278;12.588;2023-05-12T22:35:15;100407.56;;;26.61;55.61
14882;BME280;7533;51.278;12.588;2023-05-12T22:40:19;100404.00;;;26.61;56.09
14882;BME280;7533;51.278;12.588;2023-05-12T22:45:23;100405.25;;;26.57;55.74
14882;BME280;7533;51.278;12.588;2023-05-12T22:50:26;100409.41;;;26.61;55.65
14882;BME280;7533;51.278;12.588;2023-05-12T22:55:31;100415.06;;;26.48;55.72
14882;BME280;7533;51.278;12.588;2023-05-12T23:00:33;100409.97;;;26.55;55.89
14882;BME280;7533;51.278;12.588;2023-05-12T23:05:37;100410.41;;;26.60;55.62
14882;BME280;7533;51.278;12.588;2023-05-12T23:10:41;100411.41;;;26.59;55.57
14882;BME280;7533;51.278;12.588;2023-05-12T23:15:44;100418.13;;;26.55;55.81
14882;BME280;7533;51.278;12.588;2023-05-12T23:20:47;100413.84;;;26.62;55.63
14882;BME280;7533;51.278;12.588;2023-05-12T23:25:51;100414.84;;;26.61;55.59
14882;BME280;7533;51.278;12.588;2023-05-12T23:30:53;100416.97;;;26.57;55.79
14882;BME280;7533;51.278;12.588;2023-05-12T23:35:56;100427.66;;;26.49;55.89
14882;BME280;7533;51.278;12.588;2023-05-12T23:41:00;100423.00;;;26.61;55.56
14882;BME280;7533;51.278;12.588;2023-05-12T23:46:03;100419.44;;;26.60;55.53
14882;BME280;7533;51.278;12.588;2023-05-12T23:51:06;100418.44;;;26.61;55.78
14882;BME280;7533;51.278;12.588;2023-05-12T23:56:10;100411.69;;;26.66;55.59
